Taiki Maru — JI3464 — position and weather

sailwx.info

Track history (hours):
 
Tides and Currents Weather Stations Pressure Air Temp Water Temp Dewpoint Dewpoint Depression Visibility Wind Speed Wind Dir Waves Ship Positions

Taiki Maru

Last reported at 2016-May-19 15:24 UTC. Time now 2016-May-25 07:17 UTC.
Position N 34°35' E 134°51'.

Length 93 m; draft 5.2 m.

Type: Cargo ship. MMSI: 431300622.

Date/timePositionNaut miles runAvg speedWind from/ knotsBaromVisibWave heightAir tempDewpointWater temp
2016-May-19 15:24N 34°35' E 134°51'911.3
2016-May-19 14:34N 34°37' E 135°03'1413.3
2016-May-19 13:33N 34°37' E 135°19'7 7.0
2016-May-19 12:31N 34°40' E 135°27'0 0.0
2016-May-19 11:31N 34°40' E 135°27'0 0.0
2016-May-19 10:31N 34°40' E 135°27'0 0.0
2016-May-19 09:19N 34°40' E 135°27'0 0.0
2016-May-19 08:19N 34°40' E 135°27'0 0.0
2016-May-19 07:31N 34°40' E 135°27'0 0.0
2016-May-19 06:25N 34°40' E 135°27'0 0.0
2016-May-19 05:31N 34°40' E 135°27'0 0.0
2016-May-19 04:29N 34°40' E 135°27'0 0.0
2016-May-19 03:33N 34°40' E 135°27'3 3.3
2016-May-19 02:33N 34°38' E 135°23'1211.8
2016-May-19 01:33N 34°34' E 135°10'1211.4
2016-May-19 00:30N 34°36' E 134°56'  
2016-May-14 15:19N 34°41' E 134°41'1114.1
2016-May-14 14:32N 34°37' E 134°54'1010.6
2016-May-14 13:33N 34°32' E 135°05'1614.0
2016-May-14 12:24N 34°17' E 134°59'1113.4
2016-May-14 11:33N 34°06' E 134°59'17111.1
2016-May-13 20:13N 34°30' E 138°23'4712.5
2016-May-13 16:28N 34°49' E 139°15'1212.9
2016-May-13 15:33N 34°56' E 139°27'1313.1
2016-May-13 14:33N 35°05' E 139°39'1312.6
2016-May-13 13:33N 35°16' E 139°46'1212.2
2016-May-13 12:34N 35°27' E 139°41'2 1.8
2016-May-13 11:33N 35°29' E 139°40'0 0.0
2016-May-13 10:33N 35°29' E 139°40'0 0.0
2016-May-13 09:33N 35°29' E 139°40'0 0.0
2016-May-13 08:33N 35°29' E 139°40'0 0.0
2016-May-13 07:33N 35°29' E 139°40'0 0.0
2016-May-13 06:33N 35°29' E 139°40'0 0.0
2016-May-13 05:33N 35°29' E 139°40'0 0.0
2016-May-13 04:33N 35°29' E 139°40'0 0.0
2016-May-13 03:33N 35°29' E 139°40'0 0.0
2016-May-13 02:33N 35°29' E 139°40'0 0.0
2016-May-13 01:34N 35°29' E 139°40'1 1.2
2016-May-13 00:34N 35°28' E 139°40'2 1.9
2016-May-12 23:32N 35°26' E 139°42'0 0.0
2016-May-12 22:32N 35°26' E 139°42'0 0.0
2016-May-12 21:32N 35°26' E 139°42'0 0.0
2016-May-12 20:32N 35°26' E 139°42'0 0.0
2016-May-12 19:32N 35°26' E 139°42'0 0.0
2016-May-12 18:32N 35°26' E 139°42'0 0.0
2016-May-12 17:32N 35°26' E 139°42'0 0.0
2016-May-12 16:32N 35°26' E 139°42'0 0.0
2016-May-12 15:32N 35°26' E 139°42'0 0.0
2016-May-12 14:32N 35°26' E 139°42'0 0.1
2016-May-12 13:32N 35°26' E 139°42'0 0.0
2016-May-12 12:32N 35°26' E 139°42'0 0.0
2016-May-12 11:32N 35°26' E 139°42'0 0.0
2016-May-12 10:32N 35°26' E 139°42'0 0.0
2016-May-12 09:29N 35°26' E 139°42'0 0.0
2016-May-12 08:32N 35°26' E 139°42'2 1.7
2016-May-12 07:33N 35°25' E 139°43'1211.9
2016-May-12 06:33N 35°13' E 139°47'1212.3
2016-May-12 05:33N 35°03' E 139°40'1413.3
2016-May-12 04:29N 34°54' E 139°26'22710.4
2016-May-11 06:33N 34°02' E 134°58'2311.3
2016-May-11 04:33N 34°23' E 135°07'4 3.6
2016-May-11 03:27N 34°23' E 135°11'0 0.0
2016-May-11 02:33N 34°23' E 135°11'0 0.0
2016-May-11 01:33N 34°23' E 135°11'0 0.0
2016-May-11 00:33N 34°23' E 135°11'0 0.0
2016-May-10 23:33N 34°23' E 135°11'0 0.0
2016-May-10 22:33N 34°23' E 135°11'0 0.0
2016-May-10 21:33N 34°23' E 135°11'0 0.1
2016-May-10 19:33N 34°23' E 135°11'7 7.4
2016-May-10 18:33N 34°29' E 135°07'1110.6
2016-May-10 17:33N 34°37' E 134°58'  
Track history (hours):
 
Tides and Currents Weather Stations Pressure Air Temp Water Temp Dewpoint Dewpoint Depression Visibility Wind Speed Wind Dir Waves Ship Positions

Taiki Maru

Last reported at 2016-May-19 15:24 UTC. Time now 2016-May-25 07:17 UTC.
Position N 34°35' E 134°51'.

Length 93 m; draft 5.2 m.

Type: Cargo ship. MMSI: 431300622.

Date/timePositionNaut miles runAvg speedWind from/ knotsBaromVisibWave heightAir tempDewpointWater temp
2016-May-19 15:24N 34°35' E 134°51'911.3
2016-May-19 14:34N 34°37' E 135°03'1413.3
2016-May-19 13:33N 34°37' E 135°19'7 7.0
2016-May-19 12:31N 34°40' E 135°27'0 0.0
2016-May-19 11:31N 34°40' E 135°27'0 0.0
2016-May-19 10:31N 34°40' E 135°27'0 0.0
2016-May-19 09:19N 34°40' E 135°27'0 0.0
2016-May-19 08:19N 34°40' E 135°27'0 0.0
2016-May-19 07:31N 34°40' E 135°27'0 0.0
2016-May-19 06:25N 34°40' E 135°27'0 0.0
2016-May-19 05:31N 34°40' E 135°27'0 0.0
2016-May-19 04:29N 34°40' E 135°27'0 0.0
2016-May-19 03:33N 34°40' E 135°27'3 3.3
2016-May-19 02:33N 34°38' E 135°23'1211.8
2016-May-19 01:33N 34°34' E 135°10'1211.4
2016-May-19 00:30N 34°36' E 134°56'  
2016-May-14 15:19N 34°41' E 134°41'1114.1
2016-May-14 14:32N 34°37' E 134°54'1010.6
2016-May-14 13:33N 34°32' E 135°05'1614.0
2016-May-14 12:24N 34°17' E 134°59'1113.4
2016-May-14 11:33N 34°06' E 134°59'17111.1
2016-May-13 20:13N 34°30' E 138°23'4712.5
2016-May-13 16:28N 34°49' E 139°15'1212.9
2016-May-13 15:33N 34°56' E 139°27'1313.1
2016-May-13 14:33N 35°05' E 139°39'1312.6
2016-May-13 13:33N 35°16' E 139°46'1212.2
2016-May-13 12:34N 35°27' E 139°41'2 1.8
2016-May-13 11:33N 35°29' E 139°40'0 0.0
2016-May-13 10:33N 35°29' E 139°40'0 0.0
2016-May-13 09:33N 35°29' E 139°40'0 0.0
2016-May-13 08:33N 35°29' E 139°40'0 0.0
2016-May-13 07:33N 35°29' E 139°40'0 0.0
2016-May-13 06:33N 35°29' E 139°40'0 0.0
2016-May-13 05:33N 35°29' E 139°40'0 0.0
2016-May-13 04:33N 35°29' E 139°40'0 0.0
2016-May-13 03:33N 35°29' E 139°40'0 0.0
2016-May-13 02:33N 35°29' E 139°40'0 0.0
2016-May-13 01:34N 35°29' E 139°40'1 1.2
2016-May-13 00:34N 35°28' E 139°40'2 1.9
2016-May-12 23:32N 35°26' E 139°42'0 0.0
2016-May-12 22:32N 35°26' E 139°42'0 0.0
2016-May-12 21:32N 35°26' E 139°42'0 0.0
2016-May-12 20:32N 35°26' E 139°42'0 0.0
2016-May-12 19:32N 35°26' E 139°42'0 0.0
2016-May-12 18:32N 35°26' E 139°42'0 0.0
2016-May-12 17:32N 35°26' E 139°42'0 0.0
2016-May-12 16:32N 35°26' E 139°42'0 0.0
2016-May-12 15:32N 35°26' E 139°42'0 0.0
2016-May-12 14:32N 35°26' E 139°42'0 0.1
2016-May-12 13:32N 35°26' E 139°42'0 0.0
2016-May-12 12:32N 35°26' E 139°42'0 0.0
2016-May-12 11:32N 35°26' E 139°42'0 0.0
2016-May-12 10:32N 35°26' E 139°42'0 0.0
2016-May-12 09:29N 35°26' E 139°42'0 0.0
2016-May-12 08:32N 35°26' E 139°42'2 1.7
2016-May-12 07:33N 35°25' E 139°43'1211.9
2016-May-12 06:33N 35°13' E 139°47'1212.3
2016-May-12 05:33N 35°03' E 139°40'1413.3
2016-May-12 04:29N 34°54' E 139°26'22710.4
2016-May-11 06:33N 34°02' E 134°58'2311.3
2016-May-11 04:33N 34°23' E 135°07'4 3.6
2016-May-11 03:27N 34°23' E 135°11'0 0.0
2016-May-11 02:33N 34°23' E 135°11'0 0.0
2016-May-11 01:33N 34°23' E 135°11'0 0.0
2016-May-11 00:33N 34°23' E 135°11'0 0.0
2016-May-10 23:33N 34°23' E 135°11'0 0.0
2016-May-10 22:33N 34°23' E 135°11'0 0.0
2016-May-10 21:33N 34°23' E 135°11'0 0.1
2016-May-10 19:33N 34°23' E 135°11'7 7.4
2016-May-10 18:33N 34°29' E 135°07'1110.6
2016-May-10 17:33N 34°37' E 134°58'  

Dump ship's entire track history